Country
Station

 

Weather  for  Madrid/Barajas  -  Spain    Spain

  
37 °C (99 °F)
    
 
 

Current METAR for Madrid/Barajas is :

LEMD 191700Z 21004G15KT 130V250 9999 FEW060 37/08 Q1012 NOSIG

 

This is a report for Madrid/Barajas - Spain.
 
The report was made 22 minutes ago, at 17:00 UTC .
The wind was blowing at a speed of 2.1 meters per second (4.6 miles per hour) with gusts up to 7.7 meters per second (17.3 miles per hour) from south/southwest (210°), varying between southeast (130°) and west/southwest (250°).
 
The temperature was 37 °C (99 °F), with a dew-point at 8 °C (46 °F).
The temperature felt like 35 °C (95 °F).
 
The atmospheric pressure was 1012 hPa (29.88 inHg).
The relative humidity was 17.1%.
 
There were a few clouds at a height of 1829 meters (6000 feet).
 
The overall visibility was greater than 10 kilometers (6.2 miles).
 

 
 
 
 

Country :   A   B   C   D   E   F   G   H   I   J   K   L   M   N   O   P   Q   R   S   T   U   V   W   Y   Z

 

Site Info  |  Disclaimer  |  Credits  |  Privacy
Contact us  |  Add to favorites
© 2013-2019 METARs - All rights reserved